首页
METAR-TAF:

METAR-TAF

机场 :

楚克國際機場

維諾, 密克罗尼西亚群岛

纬度: 07-28N, 经度: 151-51E, 海拔: 3米

当前天气观测

该预报发布于19分钟前的00:50 UTC
风速5节,风向多变
温度 31°C
湿度 75%
气压 1009 hPa
能見度: 24.1公里
少量云层高于1400英尺
多云层高于28000英尺

METAR: PTKK 080050Z VRB05KT 15SM FEW014 BKN280 31/26 A2981 RMK SLP094 T03100261

时间: 11:09 (01:09 UTC)

预报

该预报发布于1小时和41分钟前的23:28 UTC
预报有效从08日的 00点(UTC)到 08日的 24点(UTC)
风速6节,风向多变
能見度: 10公里
少量云层高于1500英尺

TAF: PTKK 072328Z 0800/0824 VRB06KT P6SM FEW015

超过4000个机场的气象观测和天气预报(METAR&TAF报告)。

可查询的气象台以黄色和红色小点在地图上表示。

将鼠标移到小点上方,可查看气象台名称。

然后点击查看天气观测和预报。

如需切换地图:点击带黑十字的绿色按钮放大地图;点击带横线的绿色按钮缩小地图;或者点击绿色箭头查看邻近地区的地图。


METAR-TAF: